Eersel, Netherlands
Current Conditions -  °F | °C
As of 5:02 PM on Saturday 25 Oct 2014 (Local Time) from EHEH Reporting Station
Overcast Overcast  
Wind Chill: 57°   Ceiling: 2500
Heat Index: 57°   Visibility: 6mi
Dew Point: 54°   Wind: 7mph
Humidity: 88%   Direction: 260°W
Pressure: 30.09"   Gusts: NA
Location:  51.36°N, 5.32°E
Report Text: EHEH 251502Z AUTO 26006KT 9999 FEW017 BKN025 OVC029 14/12 Q1019 REDZ BLU 26008KT 9999 SCT020 BKN030
Loading
Personal Weather Stations






























Interactive Weather Map
Tropical Storm Tracking
New forecast layout! Learn more

10-Day Weather Forecast

Advertisements
Track Severe Weather on mobile